createdAt,value
2017-11-26T00:01:26.420Z,1.97
2017-11-26T00:03:54.681Z,2.07
2017-11-26T00:06:22.209Z,1.40
2017-11-26T00:08:49.744Z,1.70
2017-11-26T00:11:17.255Z,1.57
2017-11-26T00:13:44.737Z,1.73
2017-11-26T00:16:12.217Z,2.30
2017-11-26T00:18:41.411Z,2.17
2017-11-26T00:21:09.241Z,2.07
2017-11-26T00:23:36.724Z,1.80
2017-11-26T00:26:05.004Z,1.70
2017-11-26T00:28:32.494Z,2.23
2017-11-26T00:31:00.004Z,2.00
2017-11-26T00:33:27.773Z,2.00
2017-11-26T00:35:55.287Z,2.30
2017-11-26T00:38:22.766Z,1.90
2017-11-26T00:40:50.276Z,2.13
2017-11-26T00:43:17.779Z,2.40
2017-11-26T00:45:45.282Z,2.80
2017-11-26T00:48:12.780Z,2.33
2017-11-26T00:50:40.513Z,1.77
2017-11-26T00:53:08.015Z,2.30
2017-11-26T00:55:35.576Z,2.30
2017-11-26T00:58:03.067Z,2.27
2017-11-26T01:00:31.334Z,1.93
2017-11-26T01:02:59.584Z,1.13
2017-11-26T01:05:27.075Z,1.67
2017-11-26T01:07:54.587Z,1.80
2017-11-26T01:10:22.085Z,1.83
2017-11-26T01:12:49.602Z,2.47
2017-11-26T01:15:17.101Z,2.10
2017-11-26T01:17:45.354Z,1.50
2017-11-26T01:20:13.617Z,1.70
2017-11-26T01:22:43.056Z,1.53
2017-11-26T01:25:11.435Z,2.07
2017-11-26T01:27:39.712Z,2.20
2017-11-26T01:30:07.247Z,1.63
2017-11-26T01:32:35.501Z,1.97
2017-11-26T01:35:03.020Z,1.40
2017-11-26T01:37:30.538Z,1.80
2017-11-26T01:39:59.772Z,1.40
2017-11-26T01:42:27.284Z,1.80
2017-11-26T01:44:54.868Z,1.53
2017-11-26T01:47:23.138Z,2.47
2017-11-26T01:49:50.658Z,2.37
2017-11-26T01:52:18.735Z,1.50
2017-11-26T01:54:46.870Z,1.83
2017-11-26T01:57:14.413Z,2.00
2017-11-26T01:59:42.665Z,2.30
2017-11-26T02:02:11.675Z,2.30
2017-11-26T02:04:39.936Z,1.80
2017-11-26T02:07:07.428Z,1.73
2017-11-26T02:09:34.939Z,2.20
2017-11-26T02:12:02.427Z,2.50
2017-11-26T02:14:30.704Z,2.03
2017-11-26T02:16:58.964Z,2.60
2017-11-26T02:19:27.256Z,2.07
2017-11-26T02:21:54.825Z,1.67
2017-11-26T02:24:22.342Z,1.67
2017-11-26T02:26:50.610Z,2.17
2017-11-26T02:29:18.218Z,2.57
2017-11-26T02:31:57.869Z,2.07
2017-11-26T02:34:37.226Z,2.57
2017-11-26T02:37:04.728Z,2.30
2017-11-26T02:39:32.231Z,1.93
2017-11-26T02:41:59.714Z,2.63
2017-11-26T02:44:27.223Z,2.40
2017-11-26T02:46:54.729Z,1.77
2017-11-26T02:49:22.234Z,2.10
2017-11-26T02:51:49.742Z,2.33
2017-11-26T02:54:17.305Z,2.10
2017-11-26T02:56:44.760Z,2.30
2017-11-26T02:59:12.263Z,2.40
2017-11-26T03:01:40.519Z,2.00
2017-11-26T03:04:08.800Z,1.80
2017-11-26T03:06:37.109Z,2.10
2017-11-26T03:09:04.611Z,2.97
2017-11-26T03:11:32.886Z,2.90
2017-11-26T03:14:00.389Z,2.30
2017-11-26T03:16:27.897Z,1.93
2017-11-26T03:18:55.400Z,2.00
2017-11-26T03:21:22.887Z,2.10
2017-11-26T03:23:50.402Z,2.10
2017-11-26T03:26:18.670Z,1.93
2017-11-26T03:28:46.159Z,2.30
2017-11-26T03:31:13.660Z,3.43
2017-11-26T03:33:41.358Z,2.43
2017-11-26T03:36:08.859Z,1.80
2017-11-26T03:38:36.353Z,2.40
2017-11-26T03:41:04.629Z,2.20
2017-11-26T03:43:32.883Z,2.87
2017-11-26T03:46:00.382Z,2.30
2017-11-26T03:48:27.899Z,3.83
2017-11-26T03:50:56.176Z,2.00
2017-11-26T03:53:23.681Z,2.10
2017-11-26T03:55:51.187Z,2.47
2017-11-26T03:58:19.303Z,2.30
2017-11-26T04:00:47.583Z,2.87
2017-11-26T04:03:15.855Z,2.30
2017-11-26T04:05:44.114Z,2.17
2017-11-26T04:08:11.598Z,1.53
2017-11-26T04:10:39.570Z,2.93
2017-11-26T04:13:07.855Z,3.20
2017-11-26T04:15:35.396Z,4.43
2017-11-26T04:18:03.656Z,2.77
2017-11-26T04:20:31.952Z,3.40
2017-11-26T04:23:00.198Z,2.53
2017-11-26T04:25:29.189Z,2.20
2017-11-26T04:27:56.684Z,2.30
2017-11-26T04:30:24.164Z,2.83
2017-11-26T04:32:51.652Z,2.20
2017-11-26T04:35:19.248Z,2.30
2017-11-26T04:37:46.743Z,2.07
2017-11-26T04:40:14.241Z,2.30
2017-11-26T04:42:42.491Z,2.47
2017-11-26T04:45:10.049Z,2.60
2017-11-26T04:47:37.552Z,2.40
2017-11-26T04:50:05.850Z,2.40
2017-11-26T04:52:33.388Z,2.73
2017-11-26T04:55:00.936Z,3.10
2017-11-26T04:57:29.200Z,2.80
2017-11-26T04:59:56.708Z,2.40
2017-11-26T05:02:24.213Z,2.07
2017-11-26T05:04:53.223Z,2.37
2017-11-26T05:07:22.203Z,2.60
2017-11-26T05:09:50.891Z,2.30
2017-11-26T05:12:19.155Z,2.40
2017-11-26T05:14:46.679Z,2.77
2017-11-26T05:17:14.185Z,2.83
2017-11-26T05:19:43.164Z,2.40
2017-11-26T05:22:10.759Z,3.13
2017-11-26T05:24:38.256Z,3.30
2017-11-26T05:27:05.762Z,2.97
2017-11-26T05:29:33.289Z,2.43
2017-11-26T05:32:02.449Z,1.97
2017-11-26T05:34:30.779Z,2.50
2017-11-26T05:36:59.074Z,2.13
2017-11-26T05:39:27.444Z,2.70
2017-11-26T05:41:55.689Z,2.80
2017-11-26T05:44:23.909Z,3.20
2017-11-26T05:46:51.395Z,2.83
2017-11-26T05:49:18.950Z,2.27
2017-11-26T05:51:47.490Z,2.60
2017-11-26T05:54:15.768Z,2.83
2017-11-26T05:56:44.021Z,2.30
2017-11-26T05:59:12.286Z,3.70
2017-11-26T06:01:39.781Z,3.00
2017-11-26T06:04:08.046Z,2.37
2017-11-26T06:06:36.325Z,2.30
2017-11-26T06:09:04.605Z,2.80
2017-11-26T06:11:32.880Z,2.80
2017-11-26T06:14:01.165Z,2.53
2017-11-26T06:16:28.645Z,2.23
2017-11-26T06:18:56.137Z,1.97
2017-11-26T06:21:23.641Z,2.10
2017-11-26T06:23:51.140Z,2.50
2017-11-26T06:26:19.128Z,2.40
2017-11-26T06:28:47.402Z,2.50
2017-11-26T06:31:15.652Z,2.90
2017-11-26T06:33:43.149Z,2.70
2017-11-26T06:36:10.619Z,2.20
2017-11-26T06:38:38.872Z,2.70
2017-11-26T06:41:06.372Z,2.17
2017-11-26T06:43:33.868Z,3.10
2017-11-26T06:46:01.368Z,2.30
2017-11-26T06:48:29.636Z,2.13
2017-11-26T06:50:57.966Z,2.00
2017-11-26T06:53:25.485Z,2.90
2017-11-26T06:55:52.985Z,2.27
2017-11-26T06:58:20.480Z,2.10
2017-11-26T07:00:48.785Z,2.47
2017-11-26T07:03:16.299Z,3.13
2017-11-26T07:05:43.805Z,2.20
2017-11-26T07:08:11.348Z,2.33
2017-11-26T07:10:38.846Z,2.37
2017-11-26T07:13:06.355Z,2.17
2017-11-26T07:15:33.855Z,2.37
2017-11-26T07:18:01.374Z,3.10
2017-11-26T07:20:29.655Z,2.90
2017-11-26T07:22:57.209Z,3.70
2017-11-26T07:25:25.473Z,2.40
2017-11-26T07:27:53.767Z,2.33
2017-11-26T07:30:21.289Z,2.87
2017-11-26T07:32:49.550Z,1.90
2017-11-26T07:35:17.060Z,2.27
2017-11-26T07:37:44.560Z,2.40
2017-11-26T07:40:12.069Z,2.70
2017-11-26T07:42:40.347Z,2.63
2017-11-26T07:45:07.895Z,2.40
2017-11-26T07:47:36.181Z,3.73
2017-11-26T07:50:04.440Z,3.40
2017-11-26T07:52:32.712Z,3.23
2017-11-26T07:55:01.042Z,2.60
2017-11-26T07:57:28.695Z,2.53
2017-11-26T07:59:56.180Z,1.93
2017-11-26T08:02:23.680Z,1.73
2017-11-26T08:04:51.940Z,2.63
2017-11-26T08:07:20.249Z,2.57
2017-11-26T08:09:47.745Z,2.60
2017-11-26T08:12:15.266Z,3.07
2017-11-26T08:14:43.155Z,3.00
2017-11-26T08:17:10.658Z,2.20
2017-11-26T08:19:38.959Z,2.60
2017-11-26T08:22:06.476Z,2.53
2017-11-26T08:24:35.002Z,2.27
2017-11-26T08:27:02.535Z,2.00
2017-11-26T08:29:30.826Z,2.57
2017-11-26T08:31:59.097Z,2.60
2017-11-26T08:34:27.372Z,4.07
2017-11-26T08:36:54.903Z,3.23
2017-11-26T08:39:22.415Z,2.00
2017-11-26T08:41:49.966Z,2.20
2017-11-26T08:44:17.481Z,2.63
2017-11-26T08:46:44.991Z,2.50
2017-11-26T08:49:12.493Z,2.50
2017-11-26T08:51:39.994Z,1.73
2017-11-26T08:54:07.525Z,2.40
2017-11-26T08:56:35.801Z,2.20
2017-11-26T08:59:04.131Z,4.10
2017-11-26T09:01:31.693Z,2.50
2017-11-26T09:03:59.545Z,2.23
2017-11-26T09:06:30.616Z,2.60
2017-11-26T09:08:58.400Z,2.67
2017-11-26T09:11:26.659Z,2.40
2017-11-26T09:13:54.154Z,2.73
2017-11-26T09:16:22.426Z,2.50
2017-11-26T09:18:50.691Z,3.57
2017-11-26T09:21:19.019Z,2.53
2017-11-26T09:23:46.533Z,2.87
2017-11-26T09:26:15.104Z,3.00
2017-11-26T09:28:42.709Z,2.60
2017-11-26T09:31:10.212Z,2.13
2017-11-26T09:33:37.712Z,2.73
2017-11-26T09:36:05.213Z,2.70
2017-11-26T09:38:32.714Z,2.90
2017-11-26T09:41:01.020Z,3.03
2017-11-26T09:43:28.560Z,2.93
2017-11-26T09:45:56.063Z,2.40
2017-11-26T09:48:23.565Z,2.83
2017-11-26T09:50:51.072Z,2.70
2017-11-26T09:53:20.091Z,2.47
2017-11-26T09:55:49.087Z,3.10
2017-11-26T09:58:17.376Z,2.77
2017-11-26T10:00:45.708Z,2.17
2017-11-26T10:03:13.209Z,2.73
2017-11-26T10:05:41.552Z,3.03
2017-11-26T10:08:09.057Z,2.00
2017-11-26T10:10:37.309Z,2.57
2017-11-26T10:13:05.588Z,2.70
2017-11-26T10:15:33.857Z,3.03
2017-11-26T10:18:02.963Z,2.30
2017-11-26T10:20:32.231Z,2.50
2017-11-26T10:22:59.760Z,3.30
2017-11-26T10:25:27.728Z,2.30
2017-11-26T10:27:55.347Z,3.03
2017-11-26T10:30:23.604Z,3.57
2017-11-26T10:32:51.088Z,4.47
2017-11-26T10:35:19.356Z,4.90
2017-11-26T10:37:47.623Z,3.17
2017-11-26T10:40:15.904Z,3.77
2017-11-26T10:42:44.170Z,2.70
2017-11-26T10:45:11.652Z,2.00
2017-11-26T10:47:39.364Z,2.70
2017-11-26T10:50:06.877Z,3.10
2017-11-26T10:52:34.413Z,2.73
2017-11-26T10:55:02.695Z,3.00
2017-11-26T10:57:30.983Z,2.67
2017-11-26T10:59:58.496Z,2.00
2017-11-26T11:02:26.819Z,2.07
2017-11-26T11:04:55.077Z,2.10
2017-11-26T11:07:23.370Z,1.70
2017-11-26T11:09:50.920Z,2.00
2017-11-26T11:12:19.183Z,2.03
2017-11-26T11:14:46.662Z,1.77
2017-11-26T11:17:14.925Z,3.27
2017-11-26T11:19:43.272Z,3.10
2017-11-26T11:22:10.798Z,2.63
2017-11-26T11:24:38.354Z,3.43
2017-11-26T11:27:05.873Z,2.30
2017-11-26T11:29:34.136Z,2.50
2017-11-26T11:32:02.435Z,2.53
2017-11-26T11:34:30.714Z,2.00
2017-11-26T11:36:58.997Z,1.73
2017-11-26T11:39:26.598Z,2.17
2017-11-26T11:41:54.107Z,1.67
2017-11-26T11:44:23.204Z,1.63
2017-11-26T11:46:50.697Z,2.30
2017-11-26T11:49:18.408Z,1.90
2017-11-26T11:51:46.669Z,2.47
2017-11-26T11:54:14.175Z,1.60
2017-11-26T11:56:42.400Z,2.50
2017-11-26T11:59:09.875Z,2.20
2017-11-26T12:01:38.117Z,2.27
2017-11-26T12:04:05.600Z,2.07
2017-11-26T12:06:33.069Z,2.30
2017-11-26T12:09:01.328Z,1.97
2017-11-26T12:11:28.846Z,1.80
2017-11-26T12:13:56.357Z,1.77
2017-11-26T12:16:24.630Z,1.83
2017-11-26T12:18:52.927Z,2.07
2017-11-26T12:21:20.438Z,1.73
2017-11-26T12:23:47.920Z,1.80
2017-11-26T12:26:16.192Z,2.27
2017-11-26T12:28:44.621Z,2.17
2017-11-26T12:31:12.116Z,1.80
2017-11-26T12:33:41.265Z,2.00
2017-11-26T12:36:08.792Z,1.90
2017-11-26T12:38:37.047Z,3.60
2017-11-26T12:41:04.546Z,2.10
2017-11-26T12:43:32.057Z,2.23
2017-11-26T12:46:00.310Z,2.20
2017-11-26T12:48:27.815Z,1.97
2017-11-26T12:50:56.104Z,2.17
2017-11-26T12:53:23.657Z,2.50
2017-11-26T12:55:51.185Z,2.90
2017-11-26T12:58:18.664Z,1.70
2017-11-26T13:00:46.916Z,3.43
2017-11-26T13:03:14.413Z,1.47
2017-11-26T13:05:41.957Z,1.50
2017-11-26T13:08:10.227Z,2.40
2017-11-26T13:10:38.483Z,2.00
2017-11-26T13:13:06.792Z,1.57
2017-11-26T13:15:35.069Z,1.93
2017-11-26T13:18:02.568Z,2.43
2017-11-26T13:20:30.071Z,2.60
2017-11-26T13:22:58.336Z,2.57
2017-11-26T13:25:26.605Z,3.07
2017-11-26T13:27:54.901Z,2.50
2017-11-26T13:30:23.177Z,2.70
2017-11-26T13:32:51.449Z,2.70
2017-11-26T13:35:19.707Z,3.33
2017-11-26T13:37:47.202Z,2.87
2017-11-26T13:40:14.699Z,1.93
2017-11-26T13:42:42.417Z,2.60
2017-11-26T13:45:09.921Z,3.50
2017-11-26T13:47:37.422Z,3.03
2017-11-26T13:50:05.720Z,2.77
2017-11-26T13:52:33.277Z,3.00
2017-11-26T13:55:00.814Z,2.20
2017-11-26T13:57:29.401Z,2.97
2017-11-26T13:59:56.973Z,2.77
2017-11-26T14:02:24.460Z,2.10
2017-11-26T14:04:51.963Z,3.47
2017-11-26T14:07:20.246Z,2.57
2017-11-26T14:09:48.532Z,3.20
2017-11-26T14:12:16.088Z,3.00
2017-11-26T14:14:43.677Z,2.60
2017-11-26T14:17:11.163Z,2.57
2017-11-26T14:19:40.104Z,2.73
2017-11-26T14:22:07.640Z,2.63
2017-11-26T14:24:35.921Z,2.57
2017-11-26T14:27:04.190Z,3.70
2017-11-26T14:29:32.116Z,2.93
2017-11-26T14:31:59.616Z,2.77
2017-11-26T14:34:27.909Z,2.87
2017-11-26T14:36:56.189Z,2.80
2017-11-26T14:39:23.750Z,2.37
2017-11-26T14:41:51.294Z,2.40
2017-11-26T14:44:19.571Z,2.80
2017-11-26T14:46:47.137Z,2.50
2017-11-26T14:49:15.400Z,2.80
2017-11-26T14:51:43.661Z,2.33
2017-11-26T14:54:11.171Z,2.00
2017-11-26T14:56:38.838Z,2.07
2017-11-26T14:59:06.323Z,2.50
2017-11-26T15:01:35.319Z,2.27
2017-11-26T15:04:03.588Z,2.30
2017-11-26T15:06:31.095Z,2.23
2017-11-26T15:08:58.603Z,2.50
2017-11-26T15:11:26.591Z,2.00
2017-11-26T15:13:54.098Z,2.60
2017-11-26T15:16:22.066Z,2.77
2017-11-26T15:18:49.609Z,2.90
2017-11-26T15:21:17.716Z,3.10
2017-11-26T15:23:45.260Z,2.33
2017-11-26T15:26:12.789Z,2.00
2017-11-26T15:28:40.282Z,1.80
2017-11-26T15:31:07.803Z,1.90
2017-11-26T15:33:36.079Z,1.97
2017-11-26T15:36:04.367Z,2.23
2017-11-26T15:38:31.863Z,2.77
2017-11-26T15:40:59.364Z,1.70
2017-11-26T15:43:26.877Z,2.30
2017-11-26T15:45:55.167Z,1.80
2017-11-26T15:48:22.675Z,2.10
2017-11-26T15:50:50.178Z,2.13
2017-11-26T15:53:17.765Z,1.80
2017-11-26T15:55:46.107Z,2.30
2017-11-26T15:58:13.632Z,2.47
2017-11-26T16:00:41.136Z,1.80
2017-11-26T16:03:08.612Z,2.73
2017-11-26T16:05:36.098Z,1.83
2017-11-26T16:08:03.608Z,2.10
2017-11-26T16:10:32.628Z,2.53
2017-11-26T16:13:00.974Z,2.50
2017-11-26T16:15:28.921Z,2.23
2017-11-26T16:17:56.425Z,2.57
2017-11-26T16:20:24.720Z,1.60
2017-11-26T16:22:52.258Z,2.10
2017-11-26T16:25:21.130Z,2.70
2017-11-26T16:27:48.647Z,2.10
2017-11-26T16:30:16.108Z,4.10
2017-11-26T16:32:43.635Z,2.00
2017-11-26T16:35:11.892Z,2.20
2017-11-26T16:37:39.356Z,3.20
2017-11-26T16:40:07.619Z,2.60
2017-11-26T16:42:36.626Z,2.87
2017-11-26T16:45:04.900Z,3.00
2017-11-26T16:47:33.189Z,2.97
2017-11-26T16:50:01.466Z,2.83
2017-11-26T16:52:28.972Z,2.90
2017-11-26T16:54:56.461Z,2.40
2017-11-26T16:57:24.717Z,2.50
2017-11-26T16:59:52.193Z,3.00
2017-11-26T17:02:19.653Z,2.50
2017-11-26T17:04:47.935Z,2.47
2017-11-26T17:07:16.349Z,2.13
2017-11-26T17:09:43.853Z,2.20
2017-11-26T17:12:12.876Z,2.93
2017-11-26T17:14:41.118Z,2.37
2017-11-26T17:17:08.611Z,2.07
2017-11-26T17:19:36.160Z,2.93
2017-11-26T17:22:04.428Z,3.10
2017-11-26T17:24:32.726Z,2.60
2017-11-26T17:27:00.234Z,3.90
2017-11-26T17:29:27.746Z,2.70
2017-11-26T17:31:55.252Z,2.87
2017-11-26T17:34:22.761Z,2.93
2017-11-26T17:36:50.254Z,2.53
2017-11-26T17:39:17.811Z,2.60
2017-11-26T17:41:45.334Z,2.60
2017-11-26T17:44:12.859Z,3.30
2017-11-26T17:46:40.360Z,3.40
2017-11-26T17:49:07.866Z,2.80
2017-11-26T17:51:36.132Z,2.90
2017-11-26T17:54:04.331Z,2.53
2017-11-26T17:56:32.609Z,3.30
2017-11-26T17:59:01.157Z,3.07
2017-11-26T18:01:28.691Z,3.03
2017-11-26T18:03:56.477Z,2.50
2017-11-26T18:06:23.982Z,2.60
2017-11-26T18:08:52.514Z,3.20
2017-11-26T18:11:20.113Z,2.50
2017-11-26T18:13:47.651Z,2.47
2017-11-26T18:16:15.143Z,2.80
2017-11-26T18:18:42.892Z,2.90
2017-11-26T18:21:10.391Z,2.20
2017-11-26T18:23:37.943Z,2.17
2017-11-26T18:26:05.477Z,1.60
2017-11-26T18:28:33.735Z,1.93
2017-11-26T18:31:01.323Z,1.87
2017-11-26T18:33:28.808Z,2.43
2017-11-26T18:35:56.317Z,2.17
2017-11-26T18:38:24.582Z,3.17
2017-11-26T18:40:52.070Z,3.00
2017-11-26T18:43:19.619Z,2.33
2017-11-26T18:45:47.101Z,2.60
2017-11-26T18:48:14.578Z,2.70
2017-11-26T18:50:42.088Z,3.73
2017-11-26T18:53:10.341Z,3.00
2017-11-26T18:55:37.821Z,2.90
2017-11-26T18:58:05.339Z,2.73
2017-11-26T19:00:32.818Z,3.10
2017-11-26T19:03:00.323Z,2.40
2017-11-26T19:05:27.836Z,3.63
2017-11-26T19:07:56.092Z,3.77
2017-11-26T19:10:24.370Z,3.93
2017-11-26T19:12:53.359Z,3.50
2017-11-26T19:15:22.353Z,5.20
2017-11-26T19:17:50.641Z,2.47
2017-11-26T19:20:18.124Z,3.00
2017-11-26T19:22:45.634Z,3.90
2017-11-26T19:25:13.112Z,3.90
2017-11-26T19:27:41.090Z,3.90
2017-11-26T19:30:09.380Z,4.30
2017-11-26T19:32:37.648Z,3.03
2017-11-26T19:35:06.933Z,2.90
2017-11-26T19:37:35.224Z,4.97
2017-11-26T19:40:03.494Z,5.23
2017-11-26T19:42:31.784Z,5.53
2017-11-26T19:45:00.051Z,9.30
2017-11-26T19:47:29.209Z,9.20
2017-11-26T19:49:56.714Z,7.07
2017-11-26T19:52:24.267Z,5.70
2017-11-26T19:54:51.791Z,4.70
2017-11-26T19:57:19.397Z,3.60
2017-11-26T19:59:46.921Z,2.57
2017-11-26T20:02:15.934Z,3.97
2017-11-26T20:04:44.210Z,3.67
2017-11-26T20:07:12.499Z,3.63
2017-11-26T20:09:40.000Z,3.10
2017-11-26T20:12:07.524Z,2.70
2017-11-26T20:14:35.011Z,3.20
2017-11-26T20:17:02.502Z,3.07
2017-11-26T20:19:29.998Z,2.80
2017-11-26T20:21:57.500Z,2.80
2017-11-26T20:24:24.996Z,2.63
2017-11-26T20:26:52.543Z,3.00
2017-11-26T20:29:21.831Z,3.47
2017-11-26T20:31:49.414Z,3.60
2017-11-26T20:34:17.679Z,3.30
2017-11-26T20:36:45.197Z,3.10
2017-11-26T20:39:12.691Z,3.97
2017-11-26T20:41:42.493Z,3.33
2017-11-26T20:44:09.978Z,3.30
2017-11-26T20:46:37.503Z,3.27
2017-11-26T20:49:05.015Z,4.10
2017-11-26T20:51:32.752Z,2.87
2017-11-26T20:54:00.276Z,3.20
2017-11-26T20:56:28.556Z,3.67
2017-11-26T20:58:56.829Z,4.00
2017-11-26T21:01:24.345Z,3.87
2017-11-26T21:03:52.148Z,3.77
2017-11-26T21:06:19.652Z,3.40
2017-11-26T21:08:47.537Z,3.93
2017-11-26T21:11:15.076Z,3.47
2017-11-26T21:13:42.574Z,4.17
2017-11-26T21:16:10.080Z,3.50
2017-11-26T21:18:38.340Z,2.77
2017-11-26T21:21:06.714Z,3.13
2017-11-26T21:23:35.089Z,3.00
2017-11-26T21:26:04.226Z,2.93
2017-11-26T21:28:31.739Z,2.93
2017-11-26T21:31:00.012Z,2.63
2017-11-26T21:33:28.277Z,2.90
2017-11-26T21:35:55.754Z,2.90
2017-11-26T21:38:24.031Z,2.57
2017-11-26T21:40:52.292Z,3.93
2017-11-26T21:43:20.583Z,4.90
2017-11-26T21:45:48.835Z,3.33
2017-11-26T21:48:16.320Z,2.70
2017-11-26T21:50:45.346Z,4.73
2017-11-26T21:53:12.932Z,4.20
2017-11-26T21:55:40.425Z,6.37
2017-11-26T21:58:07.911Z,5.90
2017-11-26T22:00:36.524Z,3.83
2017-11-26T22:03:04.016Z,3.30
2017-11-26T22:05:31.512Z,3.47
2017-11-26T22:07:59.016Z,2.80
2017-11-26T22:10:26.516Z,3.13
2017-11-26T22:12:54.016Z,2.30
2017-11-26T22:15:22.052Z,2.70
2017-11-26T22:17:49.863Z,2.70
2017-11-26T22:20:17.352Z,3.33
2017-11-26T22:22:45.626Z,1.90
2017-11-26T22:25:13.146Z,2.77
2017-11-26T22:27:41.260Z,2.03
2017-11-26T22:30:09.545Z,2.03
2017-11-26T22:32:37.048Z,2.17
2017-11-26T22:35:04.548Z,1.60
2017-11-26T22:37:32.817Z,2.50
2017-11-26T22:40:01.099Z,1.80
2017-11-26T22:42:29.369Z,1.23
2017-11-26T22:44:57.633Z,1.43
2017-11-26T22:47:25.183Z,1.90
2017-11-26T22:49:53.449Z,1.20
2017-11-26T22:52:22.467Z,1.00
2017-11-26T22:54:50.749Z,1.53
2017-11-26T22:57:19.009Z,0.70
2017-11-26T22:59:46.519Z,1.10
2017-11-26T23:02:14.024Z,0.57
2017-11-26T23:04:44.319Z,0.70
2017-11-26T23:07:12.710Z,0.70
2017-11-26T23:09:40.316Z,0.70
2017-11-26T23:12:08.576Z,0.80
2017-11-26T23:14:36.887Z,0.60
2017-11-26T23:17:04.375Z,0.90
2017-11-26T23:19:31.891Z,1.07
2017-11-26T23:21:59.398Z,0.77
2017-11-26T23:24:26.900Z,0.90
2017-11-26T23:26:54.457Z,0.80
2017-11-26T23:29:22.730Z,1.00
2017-11-26T23:31:50.983Z,1.10
2017-11-26T23:34:19.275Z,1.07
2017-11-26T23:36:48.280Z,0.83
2017-11-26T23:39:16.533Z,0.90
2017-11-26T23:41:44.793Z,0.80
2017-11-26T23:44:12.387Z,1.10
2017-11-26T23:46:39.898Z,1.00
2017-11-26T23:49:07.395Z,1.03
2017-11-26T23:51:36.578Z,2.50
2017-11-26T23:54:04.069Z,1.20
2017-11-26T23:56:31.558Z,1.20
2017-11-26T23:58:59.055Z,0.90
